Time;durP1;ratioP1;P1;durP2;ratioP2;P2;SDS_P1;SDS_P2;PMS_P1;PMS_P2;Temp;Humidity;BMP_temperature;BMP_pressure;BME280_temperature;BME280_humidity;BME280_pressure;Samples;Min_cycle;Max_cycle;Signal;HPM_P1;HPM_P2
2022/01/11 00:00:23;;;;;;;37.65;24.33;;;;;;;;;;5101156;28;20461;-87
2022/01/11 00:02:50;;;;;;;36.78;24.55;;;;;;;;;;5102534;28;20413;-85
2022/01/11 00:05:22;;;;;;;35.45;22.92;;;;;;;;;;5096152;28;20415;-86
2022/01/11 00:07:50;;;;;;;35.38;25.50;;;;;;;;;;5100709;28;20420;-87
2022/01/11 00:10:25;;;;;;;37.67;24.37;;;;;;;;;;5101293;28;20421;-87
2022/01/11 00:12:53;;;;;;;33.92;23.35;;;;;;;;;;5098764;28;20412;-86
2022/01/11 00:15:20;;;;;;;33.40;22.75;;;;;;;;;;5096356;28;20474;-88
2022/01/11 00:17:47;;;;;;;35.05;23.45;;;;;;;;;;5099064;28;20455;-86
2022/01/11 00:20:16;;;;;;;35.03;22.77;;;;;;;;;;5101517;28;20848;-86
2022/01/11 00:24:27;;;;;;;33.92;22.55;;;;;;;;;;5096587;28;20417;-85
2022/01/11 00:25:36;;;;;;;31.48;22.00;;;;;;;;;;5104507;28;20432;-85
2022/01/11 00:28:07;;;;;;;37.90;23.17;;;;;;;;;;5107136;28;20414;-86
2022/01/11 00:30:37;;;;;;;30.80;22.17;;;;;;;;;;5107207;28;20410;-86
2022/01/11 00:33:08;;;;;;;31.63;21.60;;;;;;;;;;5108311;28;20879;-85
2022/01/11 00:35:41;;;;;;;32.70;22.17;;;;;;;;;;5107963;28;20398;-87
2022/01/11 00:38:08;;;;;;;32.67;21.97;;;;;;;;;;5108424;28;20454;-87
2022/01/11 00:40:36;;;;;;;30.63;21.52;;;;;;;;;;5102518;28;20436;-87
2022/01/11 00:43:05;;;;;;;31.30;21.23;;;;;;;;;;5108916;28;20395;-87
2022/01/11 00:45:32;;;;;;;34.25;21.38;;;;;;;;;;5108710;28;20464;-86
2022/01/11 00:47:59;;;;;;;31.35;20.55;;;;;;;;;;5108743;28;20422;-86
2022/01/11 00:50:26;;;;;;;30.50;20.98;;;;;;;;;;5108678;28;20982;-86
2022/01/11 00:52:53;;;;;;;29.15;20.30;;;;;;;;;;5108330;28;20459;-87
2022/01/11 00:55:20;;;;;;;31.02;20.73;;;;;;;;;;5105473;28;20414;-87
2022/01/11 00:57:47;;;;;;;29.52;19.60;;;;;;;;;;5108260;28;20416;-87
2022/01/11 01:00:15;;;;;;;29.65;19.92;;;;;;;;;;5111578;28;20402;-87
2022/01/11 01:02:43;;;;;;;29.80;19.63;;;;;;;;;;5118620;28;20390;-87
2022/01/11 01:05:11;;;;;;;29.25;19.38;;;;;;;;;;5133204;27;20410;-87
2022/01/11 01:07:38;;;;;;;31.05;19.55;;;;;;;;;;5109094;28;20870;-86
2022/01/11 01:10:12;;;;;;;31.02;19.77;;;;;;;;;;5105595;28;20414;-86
2022/01/11 01:12:39;;;;;;;29.40;18.77;;;;;;;;;;5107432;28;20506;-87
2022/01/11 01:15:07;;;;;;;29.37;18.80;;;;;;;;;;5107728;28;20944;-87
2022/01/11 01:17:36;;;;;;;25.83;17.65;;;;;;;;;;5107020;28;20451;-86
2022/01/11 01:20:03;;;;;;;27.00;17.77;;;;;;;;;;5107747;28;20443;-87
2022/01/11 01:22:30;;;;;;;28.30;18.45;;;;;;;;;;5107819;28;20416;-86
2022/01/11 01:24:57;;;;;;;26.00;17.63;;;;;;;;;;5103501;28;20408;-87
2022/01/11 01:27:24;;;;;;;25.75;17.42;;;;;;;;;;5106745;28;20402;-87
2022/01/11 01:29:51;;;;;;;25.90;17.13;;;;;;;;;;5107854;28;20394;-87
2022/01/11 01:32:18;;;;;;;26.15;17.23;;;;;;;;;;5107470;28;20406;-87
2022/01/11 01:34:46;;;;;;;26.98;16.80;;;;;;;;;;5107493;28;20459;-86
2022/01/11 01:37:13;;;;;;;23.92;15.52;;;;;;;;;;5104922;28;20399;-86
2022/01/11 01:39:40;;;;;;;22.02;14.98;;;;;;;;;;5104277;27;20407;-87
2022/01/11 01:42:10;;;;;;;22.30;15.15;;;;;;;;;;5107463;28;20399;-88
2022/01/11 01:44:37;;;;;;;19.05;12.85;;;;;;;;;;5106807;28;20403;-86
2022/01/11 01:47:05;;;;;;;22.40;13.68;;;;;;;;;;5107363;28;21303;-87
2022/01/11 01:49:34;;;;;;;18.48;12.07;;;;;;;;;;5107167;28;20418;-86
2022/01/11 01:52:03;;;;;;;15.90;10.82;;;;;;;;;;5107264;28;20399;-86
2022/01/11 01:54:30;;;;;;;15.65;10.75;;;;;;;;;;5103730;28;20402;-86
2022/01/11 01:56:57;;;;;;;14.15;10.27;;;;;;;;;;5105724;28;20399;-86
2022/01/11 01:59:24;;;;;;;14.45;10.10;;;;;;;;;;5107173;27;20406;-87
2022/01/11 02:01:51;;;;;;;16.90;10.85;;;;;;;;;;5106662;28;20864;-87
2022/01/11 02:04:19;;;;;;;13.90;10.37;;;;;;;;;;5102574;28;20410;-86
2022/01/11 02:06:47;;;;;;;15.75;9.93;;;;;;;;;;5106791;28;20411;-88
2022/01/11 02:09:16;;;;;;;15.00;10.10;;;;;;;;;;5100225;28;20496;-87
2022/01/11 02:11:43;;;;;;;15.88;9.75;;;;;;;;;;5106010;28;20954;-88
2022/01/11 02:14:10;;;;;;;13.88;9.57;;;;;;;;;;5107240;28;20398;-87
2022/01/11 02:16:38;;;;;;;14.50;9.90;;;;;;;;;;5106681;28;20441;-86
2022/01/11 02:19:06;;;;;;;13.90;9.88;;;;;;;;;;5105146;28;20487;-87
2022/01/11 02:21:34;;;;;;;14.13;9.75;;;;;;;;;;5104608;28;20391;-86
2022/01/11 02:24:02;;;;;;;13.35;9.70;;;;;;;;;;5106690;28;20390;-86
2022/01/11 02:26:28;;;;;;;15.90;10.27;;;;;;;;;;5104105;28;20411;-87
2022/01/11 02:28:55;;;;;;;14.95;10.20;;;;;;;;;;5106305;28;20915;-88
2022/01/11 02:31:22;;;;;;;13.65;8.95;;;;;;;;;;5107045;28;20394;-87
2022/01/11 02:33:52;;;;;;;15.40;9.40;;;;;;;;;;5107142;28;20443;-88
2022/01/11 02:36:21;;;;;;;14.68;9.13;;;;;;;;;;5102580;28;20399;-87
2022/01/11 02:38:52;;;;;;;13.90;9.37;;;;;;;;;;5103632;28;20872;-87
2022/01/11 02:41:20;;;;;;;13.13;8.80;;;;;;;;;;5102244;28;20399;-87
2022/01/11 02:43:49;;;;;;;11.68;7.93;;;;;;;;;;5106617;28;20402;-86
2022/01/11 02:46:19;;;;;;;12.93;8.32;;;;;;;;;;5102862;28;20410;-86
2022/01/11 02:48:46;;;;;;;11.60;8.02;;;;;;;;;;5106587;28;20415;-86
2022/01/11 02:51:13;;;;;;;12.10;7.90;;;;;;;;;;5106892;28;20394;-86
2022/01/11 02:53:40;;;;;;;12.03;7.97;;;;;;;;;;5106306;28;20398;-87
2022/01/11 02:56:09;;;;;;;11.57;7.97;;;;;;;;;;5103489;28;20947;-87
2022/01/11 02:58:36;;;;;;;11.55;7.45;;;;;;;;;;5106659;28;20407;-87
2022/01/11 03:01:04;;;;;;;10.13;7.72;;;;;;;;;;5106615;28;20467;-87
2022/01/11 03:03:31;;;;;;;10.45;7.30;;;;;;;;;;5106887;28;20463;-86
2022/01/11 03:06:00;;;;;;;10.65;7.22;;;;;;;;;;5106565;28;20409;-87
2022/01/11 03:08:29;;;;;;;11.83;7.47;;;;;;;;;;5108284;28;20410;-87
2022/01/11 03:10:57;;;;;;;9.90;6.90;;;;;;;;;;5107688;28;20430;-88
2022/01/11 03:13:25;;;;;;;9.90;7.13;;;;;;;;;;5111247;28;20460;-86
2022/01/11 03:15:54;;;;;;;9.48;6.53;;;;;;;;;;5110066;28;20405;-87
2022/01/11 03:18:22;;;;;;;9.80;6.72;;;;;;;;;;5106860;28;20402;-87
2022/01/11 03:20:51;;;;;;;11.50;7.13;;;;;;;;;;5101747;28;20413;-86
2022/01/11 03:23:18;;;;;;;10.65;7.20;;;;;;;;;;5110899;28;20407;-86
2022/01/11 03:25:46;;;;;;;10.32;6.85;;;;;;;;;;5106505;28;20430;-87
2022/01/11 03:28:13;;;;;;;10.93;6.90;;;;;;;;;;5110558;28;20459;-86
2022/01/11 03:30:41;;;;;;;10.65;7.03;;;;;;;;;;5110410;28;20405;-87
2022/01/11 03:33:08;;;;;;;11.35;6.93;;;;;;;;;;5110147;28;20871;-85
2022/01/11 03:35:37;;;;;;;11.75;6.85;;;;;;;;;;5107013;28;20403;-85
2022/01/11 03:38:05;;;;;;;10.47;6.97;;;;;;;;;;5109286;28;20406;-86
2022/01/11 03:40:32;;;;;;;11.20;6.55;;;;;;;;;;5108162;28;20882;-86
2022/01/11 03:42:59;;;;;;;10.77;6.85;;;;;;;;;;5110635;28;21048;-87
2022/01/11 03:45:26;;;;;;;9.95;6.47;;;;;;;;;;5110969;28;20943;-86
2022/01/11 03:47:57;;;;;;;9.05;6.30;;;;;;;;;;5110322;28;20448;-87
2022/01/11 03:50:24;;;;;;;9.43;6.32;;;;;;;;;;5109356;28;20480;-87
2022/01/11 03:52:58;;;;;;;9.82;6.38;;;;;;;;;;5113416;28;20399;-87
2022/01/11 03:55:43;;;;;;;10.05;6.22;;;;;;;;;;5131872;27;20391;-87
2022/01/11 03:58:10;;;;;;;9.65;6.45;;;;;;;;;;5125230;27;20406;-87
2022/01/11 04:00:38;;;;;;;10.00;6.28;;;;;;;;;;5109414;28;20406;-86
2022/01/11 04:03:06;;;;;;;11.13;6.95;;;;;;;;;;5109507;28;20395;-87
2022/01/11 04:05:33;;;;;;;9.68;6.68;;;;;;;;;;5110192;28;20402;-85
2022/01/11 04:08:00;;;;;;;9.55;6.50;;;;;;;;;;5108961;28;20402;-86
2022/01/11 04:10:27;;;;;;;11.13;6.80;;;;;;;;;;5108361;28;20418;-86
2022/01/11 04:12:54;;;;;;;9.68;6.50;;;;;;;;;;5108988;28;20398;-86
2022/01/11 04:15:21;;;;;;;9.32;6.80;;;;;;;;;;5109887;28;20402;-87
2022/01/11 04:17:48;;;;;;;9.40;6.50;;;;;;;;;;5108716;28;20403;-86
2022/01/11 04:20:19;;;;;;;10.68;6.35;;;;;;;;;;5109757;28;20402;-86
2022/01/11 04:22:47;;;;;;;9.30;7.18;;;;;;;;;;5109324;28;20406;-87
2022/01/11 04:25:14;;;;;;;10.23;6.63;;;;;;;;;;5105453;28;20411;-88
2022/01/11 04:27:41;;;;;;;11.75;6.30;;;;;;;;;;5109112;28;21076;-86
2022/01/11 04:30:08;;;;;;;10.68;6.75;;;;;;;;;;5107639;28;20418;-86
2022/01/11 04:32:36;;;;;;;9.23;6.60;;;;;;;;;;5109067;27;20398;-86
2022/01/11 04:35:03;;;;;;;9.33;6.73;;;;;;;;;;5109321;28;20395;-87
2022/01/11 04:37:31;;;;;;;9.35;6.18;;;;;;;;;;5108797;28;20879;-87
2022/01/11 04:39:58;;;;;;;9.90;6.70;;;;;;;;;;5104846;28;20452;-86
2022/01/11 04:42:25;;;;;;;10.70;6.60;;;;;;;;;;5107985;28;20403;-86
2022/01/11 04:44:52;;;;;;;9.68;6.88;;;;;;;;;;5107601;28;20399;-86
2022/01/11 04:47:19;;;;;;;10.10;6.80;;;;;;;;;;5108624;27;20483;-86
2022/01/11 04:49:46;;;;;;;9.73;6.63;;;;;;;;;;5108375;28;20418;-87
2022/01/11 04:52:13;;;;;;;10.07;6.65;;;;;;;;;;5108615;28;20875;-86
2022/01/11 04:54:41;;;;;;;8.32;6.47;;;;;;;;;;5106052;28;20452;-86
2022/01/11 04:57:08;;;;;;;11.88;6.82;;;;;;;;;;5106934;28;20403;-86
2022/01/11 04:59:35;;;;;;;10.07;7.13;;;;;;;;;;5108549;28;20924;-86
2022/01/11 05:02:02;;;;;;;10.23;6.43;;;;;;;;;;5107904;28;20452;-87
2022/01/11 05:04:29;;;;;;;9.60;7.00;;;;;;;;;;5102196;28;20750;-86
2022/01/11 05:06:56;;;;;;;11.30;6.90;;;;;;;;;;5104658;28;20410;-86
2022/01/11 05:09:23;;;;;;;10.17;6.80;;;;;;;;;;5105700;28;20490;-87
2022/01/11 05:11:52;;;;;;;9.85;6.55;;;;;;;;;;5106363;28;20460;-87
2022/01/11 05:14:19;;;;;;;9.23;6.53;;;;;;;;;;5106294;28;20390;-86
2022/01/11 05:16:45;;;;;;;10.88;6.85;;;;;;;;;;5107751;28;20955;-86
2022/01/11 05:19:13;;;;;;;11.85;6.88;;;;;;;;;;5107348;28;20790;-87
2022/01/11 05:21:40;;;;;;;10.43;6.75;;;;;;;;;;5107369;28;20391;-86
2022/01/11 05:24:08;;;;;;;9.32;6.40;;;;;;;;;;5107368;28;20399;-85
2022/01/11 05:26:35;;;;;;;9.88;6.55;;;;;;;;;;5106069;28;20402;-86
2022/01/11 05:29:04;;;;;;;11.55;6.60;;;;;;;;;;5106894;28;20467;-87
2022/01/11 05:31:32;;;;;;;12.77;6.50;;;;;;;;;;5105698;28;20464;-86
2022/01/11 05:33:59;;;;;;;10.75;6.55;;;;;;;;;;5106620;28;20771;-87
2022/01/11 05:36:26;;;;;;;8.63;5.85;;;;;;;;;;5107950;27;20463;-86
2022/01/11 05:38:52;;;;;;;8.98;6.07;;;;;;;;;;5106905;28;20402;-86
2022/01/11 05:41:19;;;;;;;9.00;6.18;;;;;;;;;;5107582;28;20406;-86
2022/01/11 05:43:46;;;;;;;8.77;6.22;;;;;;;;;;5107441;28;20402;-86
2022/01/11 05:46:14;;;;;;;10.23;6.53;;;;;;;;;;5108244;28;20407;-87
2022/01/11 05:48:44;;;;;;;9.50;6.05;;;;;;;;;;5107182;28;20460;-87
2022/01/11 05:51:11;;;;;;;9.88;5.88;;;;;;;;;;5101889;28;20409;-86
2022/01/11 05:53:38;;;;;;;8.38;6.00;;;;;;;;;;5107001;28;20390;-87
2022/01/11 05:56:05;;;;;;;8.15;6.18;;;;;;;;;;5103118;28;20800;-87
2022/01/11 05:58:33;;;;;;;10.60;6.25;;;;;;;;;;5107712;28;20455;-86
2022/01/11 06:01:00;;;;;;;10.93;6.30;;;;;;;;;;5107936;28;20886;-86
2022/01/11 06:03:28;;;;;;;9.45;6.00;;;;;;;;;;5104478;28;20550;-87
2022/01/11 06:05:55;;;;;;;8.82;6.10;;;;;;;;;;5104913;28;20444;-87
2022/01/11 06:08:22;;;;;;;9.55;6.05;;;;;;;;;;5105358;28;20418;-87
2022/01/11 06:10:51;;;;;;;9.77;6.57;;;;;;;;;;5102602;28;20414;-87
2022/01/11 06:13:18;;;;;;;10.73;6.30;;;;;;;;;;5098984;28;20406;-86
2022/01/11 06:15:45;;;;;;;9.68;6.35;;;;;;;;;;5100688;28;20465;-84
2022/01/11 06:18:12;;;;;;;9.27;6.10;;;;;;;;;;5100486;28;20407;-87
2022/01/11 06:20:41;;;;;;;9.07;6.47;;;;;;;;;;5102809;28;20410;-86
2022/01/11 06:23:07;;;;;;;8.65;5.70;;;;;;;;;;5099203;28;20416;-88
2022/01/11 06:25:35;;;;;;;9.13;6.03;;;;;;;;;;5100663;28;20408;-88
2022/01/11 06:28:02;;;;;;;9.88;6.40;;;;;;;;;;5100147;28;20399;-88
2022/01/11 06:30:29;;;;;;;9.35;5.88;;;;;;;;;;5099820;28;20419;-89
2022/01/11 06:32:56;;;;;;;11.18;6.13;;;;;;;;;;5091241;28;20416;-86
2022/01/11 06:35:24;;;;;;;10.55;6.57;;;;;;;;;;5095555;28;20446;-86
2022/01/11 06:37:53;;;;;;;10.47;7.07;;;;;;;;;;5099743;28;21064;-86
2022/01/11 06:40:21;;;;;;;10.98;7.13;;;;;;;;;;5102051;28;20402;-85
2022/01/11 06:42:50;;;;;;;14.65;8.85;;;;;;;;;;5103043;28;20407;-85
2022/01/11 06:45:18;;;;;;;14.03;8.60;;;;;;;;;;5121615;28;20406;-85
2022/01/11 06:47:45;;;;;;;14.30;9.05;;;;;;;;;;5125494;27;20458;-85
2022/01/11 06:50:12;;;;;;;13.95;9.55;;;;;;;;;;5107724;28;20418;-85
2022/01/11 06:52:40;;;;;;;16.85;9.57;;;;;;;;;;5105836;28;20797;-85
2022/01/11 06:55:09;;;;;;;15.77;9.05;;;;;;;;;;5106479;28;20412;-85
2022/01/11 06:57:37;;;;;;;16.73;9.63;;;;;;;;;;5108716;28;20921;-84
2022/01/11 07:00:07;;;;;;;16.25;10.18;;;;;;;;;;5106056;28;20459;-85
2022/01/11 07:02:33;;;;;;;22.92;11.63;;;;;;;;;;5109789;28;20403;-85
2022/01/11 07:05:00;;;;;;;23.00;12.48;;;;;;;;;;5108531;27;20427;-85
2022/01/11 07:07:27;;;;;;;32.83;15.25;;;;;;;;;;5109535;27;20403;-84
2022/01/11 07:09:54;;;;;;;31.35;16.20;;;;;;;;;;5102736;28;20428;-85
2022/01/11 07:12:22;;;;;;;33.55;17.02;;;;;;;;;;5106413;28;20451;-85
2022/01/11 07:14:49;;;;;;;27.40;16.13;;;;;;;;;;5102661;28;20452;-85
2022/01/11 07:17:16;;;;;;;29.90;16.30;;;;;;;;;;5104175;28;20455;-85
2022/01/11 07:19:43;;;;;;;29.55;15.80;;;;;;;;;;5107569;28;20471;-85
2022/01/11 07:22:10;;;;;;;26.42;14.45;;;;;;;;;;5109397;28;20406;-85
2022/01/11 07:24:39;;;;;;;27.50;14.52;;;;;;;;;;5108605;28;20466;-84
2022/01/11 07:27:06;;;;;;;28.05;14.07;;;;;;;;;;5099747;28;20403;-85
2022/01/11 07:29:34;;;;;;;22.13;12.30;;;;;;;;;;5105483;28;20447;-84
2022/01/11 07:32:01;;;;;;;24.88;12.65;;;;;;;;;;5105269;28;20395;-85
2022/01/11 07:34:28;;;;;;;22.30;12.10;;;;;;;;;;5106605;28;20396;-85
2022/01/11 07:36:55;;;;;;;20.55;11.93;;;;;;;;;;5098988;28;20406;-85
2022/01/11 07:39:22;;;;;;;26.58;13.80;;;;;;;;;;5099736;28;20404;-85
2022/01/11 07:41:50;;;;;;;26.63;13.88;;;;;;;;;;5104514;28;20931;-85
2022/01/11 07:44:17;;;;;;;21.77;12.40;;;;;;;;;;5105039;28;20890;-85
2022/01/11 07:46:46;;;;;;;21.55;12.52;;;;;;;;;;5107915;28;20390;-85
2022/01/11 07:49:13;;;;;;;50.25;27.27;;;;;;;;;;5107886;28;20405;-85
2022/01/11 07:51:40;;;;;;;41.45;22.13;;;;;;;;;;5107445;28;20487;-86
2022/01/11 07:54:07;;;;;;;26.73;15.20;;;;;;;;;;5108144;28;20479;-85
2022/01/11 07:56:34;;;;;;;69.22;34.13;;;;;;;;;;5108129;28;20406;-85
2022/01/11 07:59:01;;;;;;;90.40;41.33;;;;;;;;;;5109028;28;20403;-85
2022/01/11 08:01:28;;;;;;;30.98;17.70;;;;;;;;;;5109154;28;20403;-85
2022/01/11 08:03:56;;;;;;;22.67;13.63;;;;;;;;;;5108773;28;20407;-86
2022/01/11 08:06:23;;;;;;;27.35;15.52;;;;;;;;;;5109195;28;20399;-85
2022/01/11 08:08:50;;;;;;;17.52;11.98;;;;;;;;;;5105432;28;20406;-85
2022/01/11 08:11:17;;;;;;;20.55;13.35;;;;;;;;;;5106957;28;20910;-85
2022/01/11 08:13:43;;;;;;;19.42;11.40;;;;;;;;;;5108534;28;20395;-85
2022/01/11 08:16:10;;;;;;;20.88;11.80;;;;;;;;;;5109268;28;20468;-85
2022/01/11 08:18:37;;;;;;;22.02;14.85;;;;;;;;;;5104270;28;20408;-86
2022/01/11 08:21:06;;;;;;;27.73;21.27;;;;;;;;;;5107270;28;20456;-85
2022/01/11 08:23:34;;;;;;;20.27;12.67;;;;;;;;;;5107502;28;20406;-85
2022/01/11 08:26:01;;;;;;;17.02;11.25;;;;;;;;;;5107427;28;20408;-86
2022/01/11 08:28:27;;;;;;;20.23;11.93;;;;;;;;;;5108745;28;20797;-85
2022/01/11 08:30:57;;;;;;;22.17;12.35;;;;;;;;;;5108648;28;20430;-85
2022/01/11 08:33:24;;;;;;;20.83;12.70;;;;;;;;;;5105292;28;20821;-85
2022/01/11 08:35:51;;;;;;;23.65;12.75;;;;;;;;;;5105009;28;21285;-85
2022/01/11 08:38:19;;;;;;;21.52;13.23;;;;;;;;;;5108364;28;20448;-85
2022/01/11 08:40:46;;;;;;;22.98;12.93;;;;;;;;;;5105203;28;20403;-85
2022/01/11 08:43:15;;;;;;;19.90;13.00;;;;;;;;;;5108512;28;20463;-85
2022/01/11 08:45:42;;;;;;;19.60;13.03;;;;;;;;;;5108162;28;20524;-85
2022/01/11 08:48:09;;;;;;;20.10;13.30;;;;;;;;;;5108659;28;20455;-85
2022/01/11 08:50:37;;;;;;;18.63;12.05;;;;;;;;;;5108202;28;20409;-85
2022/01/11 08:53:04;;;;;;;22.70;13.05;;;;;;;;;;5108571;28;20452;-85
2022/01/11 08:55:32;;;;;;;16.50;12.13;;;;;;;;;;5107009;28;20411;-85
2022/01/11 08:57:59;;;;;;;18.80;12.20;;;;;;;;;;5108100;28;20394;-85
2022/01/11 09:00:26;;;;;;;18.90;12.82;;;;;;;;;;5107722;28;20398;-85
2022/01/11 09:02:54;;;;;;;21.70;13.55;;;;;;;;;;5107734;28;20448;-85
2022/01/11 09:05:22;;;;;;;22.35;12.93;;;;;;;;;;5104925;28;20399;-84
2022/01/11 09:07:49;;;;;;;22.75;13.35;;;;;;;;;;5107290;28;20915;-86
2022/01/11 09:10:16;;;;;;;20.00;13.10;;;;;;;;;;5105052;28;20768;-85
2022/01/11 09:12:45;;;;;;;22.70;13.60;;;;;;;;;;5106668;28;20459;-85
2022/01/11 09:15:13;;;;;;;19.52;12.95;;;;;;;;;;5096028;27;20464;-85
2022/01/11 09:17:40;;;;;;;21.85;14.18;;;;;;;;;;5102281;28;20426;-84
2022/01/11 09:20:09;;;;;;;22.65;13.80;;;;;;;;;;5107730;28;20398;-85
2022/01/11 09:22:36;;;;;;;22.05;13.90;;;;;;;;;;5107283;28;20398;-85
2022/01/11 09:25:03;;;;;;;20.05;12.57;;;;;;;;;;5107045;28;20897;-85
2022/01/11 09:27:30;;;;;;;20.20;13.23;;;;;;;;;;5105878;28;20455;-85
2022/01/11 09:29:59;;;;;;;21.60;12.75;;;;;;;;;;5099098;28;20800;-86
2022/01/11 09:32:26;;;;;;;17.60;12.70;;;;;;;;;;5107716;28;20394;-85
2022/01/11 09:34:53;;;;;;;20.42;13.35;;;;;;;;;;5107390;28;20485;-85
2022/01/11 09:37:20;;;;;;;21.10;15.30;;;;;;;;;;5103619;28;20797;-85
2022/01/11 09:39:48;;;;;;;27.85;17.80;;;;;;;;;;5105699;28;20399;-85
2022/01/11 09:42:15;;;;;;;26.20;18.08;;;;;;;;;;5110956;28;20395;-85
2022/01/11 09:44:42;;;;;;;23.65;16.33;;;;;;;;;;5122262;28;20387;-85
2022/01/11 09:47:12;;;;;;;21.35;14.38;;;;;;;;;;5116433;28;20879;-85
2022/01/11 09:49:39;;;;;;;18.50;13.37;;;;;;;;;;5100203;28;20478;-86
2022/01/11 09:52:07;;;;;;;18.35;12.63;;;;;;;;;;5100148;28;20416;-87
2022/01/11 09:54:35;;;;;;;23.13;13.57;;;;;;;;;;5098259;28;20416;-86
2022/01/11 09:57:03;;;;;;;23.00;14.32;;;;;;;;;;5096256;28;20403;-86
2022/01/11 09:59:31;;;;;;;21.77;13.43;;;;;;;;;;5098515;28;20398;-87
2022/01/11 10:01:58;;;;;;;20.98;13.80;;;;;;;;;;5094531;28;20419;-87
2022/01/11 10:04:28;;;;;;;18.75;12.98;;;;;;;;;;5096527;28;20427;-87
2022/01/11 10:06:57;;;;;;;18.25;12.52;;;;;;;;;;5095024;28;20549;-88
2022/01/11 10:09:25;;;;;;;18.98;13.32;;;;;;;;;;5097576;28;20400;-88
2022/01/11 10:11:54;;;;;;;22.63;12.85;;;;;;;;;;5096752;28;20937;-87
2022/01/11 10:14:27;;;;;;;19.58;14.35;;;;;;;;;;5095268;28;20417;-87
2022/01/11 10:17:11;;;;;;;20.33;12.20;;;;;;;;;;5103757;28;20487;-87
2022/01/11 10:19:41;;;;;;;15.98;11.10;;;;;;;;;;5106462;28;20489;-87
2022/01/11 10:22:11;;;;;;;19.25;11.27;;;;;;;;;;5107909;28;20406;-89
2022/01/11 10:24:42;;;;;;;13.23;9.20;;;;;;;;;;5106885;28;21258;-86
2022/01/11 10:27:13;;;;;;;10.18;7.63;;;;;;;;;;5102206;28;20969;-87
2022/01/11 10:29:42;;;;;;;14.15;8.80;;;;;;;;;;5107480;28;20464;-86
2022/01/11 10:32:16;;;;;;;12.05;8.35;;;;;;;;;;5108148;28;20483;-87
2022/01/11 10:34:48;;;;;;;11.45;8.48;;;;;;;;;;5107346;28;20455;-87
2022/01/11 10:37:16;;;;;;;9.67;7.27;;;;;;;;;;5107451;28;20398;-88
2022/01/11 10:39:45;;;;;;;10.25;6.45;;;;;;;;;;5104119;28;20456;-88
2022/01/11 10:42:27;;;;;;;8.83;6.40;;;;;;;;;;5099147;28;20443;-87
2022/01/11 10:44:58;;;;;;;7.47;5.43;;;;;;;;;;5103937;28;20880;-88
2022/01/11 10:47:27;;;;;;;7.57;5.45;;;;;;;;;;5104461;28;20757;-88
2022/01/11 10:49:59;;;;;;;8.00;6.07;;;;;;;;;;5103589;28;20390;-88
2022/01/11 10:52:28;;;;;;;8.95;6.20;;;;;;;;;;5103787;28;20489;-88
2022/01/11 10:54:55;;;;;;;8.55;5.80;;;;;;;;;;5101011;28;20898;-87
2022/01/11 10:57:25;;;;;;;8.10;5.20;;;;;;;;;;5102615;28;20908;-88
2022/01/11 11:00:25;;;;;;;10.25;6.18;;;;;;;;;;5101805;28;20399;-88
2022/01/11 11:02:59;;;;;;;14.60;8.82;;;;;;;;;;5092252;28;20450;-88
2022/01/11 11:05:32;;;;;;;12.00;7.50;;;;;;;;;;5102377;28;20809;-88
2022/01/11 11:08:05;;;;;;;12.13;7.37;;;;;;;;;;5106099;28;20406;-88
2022/01/11 11:10:36;;;;;;;11.82;7.03;;;;;;;;;;5105291;28;20411;-88
2022/01/11 11:13:04;;;;;;;8.85;5.72;;;;;;;;;;5107188;28;20394;-88
2022/01/11 11:15:33;;;;;;;21.23;11.60;;;;;;;;;;5106488;28;20444;-87
2022/01/11 11:18:00;;;;;;;23.63;12.77;;;;;;;;;;5106778;28;20410;-88
2022/01/11 11:20:28;;;;;;;7.38;5.68;;;;;;;;;;5106552;28;20407;-88
2022/01/11 11:22:55;;;;;;;8.57;5.80;;;;;;;;;;5099708;28;20406;-87
2022/01/11 11:25:22;;;;;;;7.40;5.45;;;;;;;;;;5095473;28;20410;-88
2022/01/11 11:27:50;;;;;;;7.45;5.40;;;;;;;;;;5097810;28;20395;-88
2022/01/11 11:30:17;;;;;;;10.95;5.63;;;;;;;;;;5100612;28;20399;-89
2022/01/11 11:32:46;;;;;;;9.35;6.25;;;;;;;;;;5098354;28;20487;-89
2022/01/11 11:35:13;;;;;;;7.43;5.67;;;;;;;;;;5101171;28;20498;-88
2022/01/11 11:37:43;;;;;;;8.38;5.82;;;;;;;;;;5101558;28;20390;-89
2022/01/11 11:40:14;;;;;;;9.18;6.57;;;;;;;;;;5102049;28;20407;-88
2022/01/11 11:42:42;;;;;;;20.67;10.75;;;;;;;;;;5099037;28;20883;-88
2022/01/11 11:45:17;;;;;;;22.20;12.43;;;;;;;;;;5106279;28;20727;-88
2022/01/11 11:47:45;;;;;;;9.95;6.78;;;;;;;;;;5109554;28;20403;-88
2022/01/11 11:50:16;;;;;;;9.35;6.10;;;;;;;;;;5110138;28;20868;-88
2022/01/11 11:52:46;;;;;;;18.48;10.85;;;;;;;;;;5109043;28;20471;-88
2022/01/11 11:55:19;;;;;;;7.10;5.05;;;;;;;;;;5107055;28;20951;-88
2022/01/11 11:57:46;;;;;;;7.40;4.93;;;;;;;;;;5107349;27;20889;-88
2022/01/11 12:00:18;;;;;;;9.10;4.93;;;;;;;;;;5108850;28;20862;-87
2022/01/11 12:02:48;;;;;;;7.20;5.30;;;;;;;;;;5109485;28;20886;-88
2022/01/11 12:05:32;;;;;;;8.50;5.70;;;;;;;;;;5109860;28;20455;-88
2022/01/11 12:08:20;;;;;;;7.65;5.03;;;;;;;;;;5106581;28;20399;-89
2022/01/11 12:10:52;;;;;;;9.15;5.57;;;;;;;;;;5107411;28;20410;-89
2022/01/11 12:13:38;;;;;;;9.20;5.53;;;;;;;;;;5107525;28;20744;-88
2022/01/11 12:16:25;;;;;;;9.20;5.90;;;;;;;;;;5107155;28;20426;-87
2022/01/11 12:18:53;;;;;;;8.88;6.00;;;;;;;;;;5103268;28;20449;-86
2022/01/11 12:21:20;;;;;;;10.02;7.72;;;;;;;;;;5105261;28;20419;-85
2022/01/11 12:23:54;;;;;;;10.37;6.33;;;;;;;;;;5098054;28;20498;-85
2022/01/11 12:26:25;;;;;;;8.43;6.35;;;;;;;;;;5102489;28;20896;-85
2022/01/11 12:29:23;;;;;;;7.10;5.20;;;;;;;;;;5104236;28;20398;-85
2022/01/11 12:31:58;;;;;;;6.82;3.78;;;;;;;;;;5107017;28;20418;-84
2022/01/11 12:35:00;;;;;;;7.43;4.90;;;;;;;;;;5093490;28;20428;-84
2022/01/11 12:37:33;;;;;;;5.87;5.10;;;;;;;;;;5050821;28;20408;-84
2022/01/11 12:40:12;;;;;;;6.78;4.88;;;;;;;;;;5051442;28;21151;-85
2022/01/11 12:42:50;;;;;;;6.47;5.07;;;;;;;;;;5077808;28;20405;-84
2022/01/11 12:45:36;;;;;;;6.68;5.43;;;;;;;;;;5092278;28;20517;-84
2022/01/11 12:48:04;;;;;;;6.80;5.40;;;;;;;;;;5092408;28;20763;-85
2022/01/11 12:50:31;;;;;;;8.57;6.13;;;;;;;;;;5096161;28;20404;-83
2022/01/11 12:52:59;;;;;;;8.27;6.55;;;;;;;;;;5098160;27;20418;-85
2022/01/11 12:55:27;;;;;;;7.13;6.07;;;;;;;;;;5096545;28;20495;-86
2022/01/11 12:57:55;;;;;;;6.47;4.45;;;;;;;;;;5103816;27;20398;-86
2022/01/11 13:00:23;;;;;;;5.32;3.88;;;;;;;;;;5104170;28;20491;-85
2022/01/11 13:02:50;;;;;;;6.13;3.83;;;;;;;;;;5106488;27;20499;-86
2022/01/11 13:05:20;;;;;;;7.53;4.40;;;;;;;;;;5106833;28;20422;-85
2022/01/11 13:07:51;;;;;;;5.80;4.28;;;;;;;;;;5105934;27;20414;-84
2022/01/11 13:10:20;;;;;;;5.05;3.83;;;;;;;;;;5108031;28;20415;-88
2022/01/11 13:12:51;;;;;;;5.47;4.40;;;;;;;;;;5105789;27;20468;-89
2022/01/11 13:15:24;;;;;;;5.70;3.90;;;;;;;;;;5105820;28;20539;-88
2022/01/11 13:17:54;;;;;;;6.43;4.15;;;;;;;;;;5105899;27;20951;-89
2022/01/11 13:20:22;;;;;;;6.03;3.70;;;;;;;;;;5106041;28;20419;-89
2022/01/11 13:23:06;;;;;;;5.18;3.63;;;;;;;;;;5115521;28;20478;-89
2022/01/11 13:25:38;;;;;;;4.22;3.50;;;;;;;;;;5110072;28;20940;-88
2022/01/11 13:28:08;;;;;;;3.83;3.03;;;;;;;;;;5097564;28;20522;-88
2022/01/11 13:30:37;;;;;;;5.25;3.28;;;;;;;;;;5098302;28;20391;-89
2022/01/11 13:33:04;;;;;;;4.13;3.20;;;;;;;;;;5092612;28;21128;-87
2022/01/11 13:35:31;;;;;;;6.63;3.60;;;;;;;;;;5092580;28;20412;-88
2022/01/11 13:38:09;;;;;;;5.90;3.43;;;;;;;;;;5090698;28;20986;-88
2022/01/11 13:40:36;;;;;;;6.57;4.00;;;;;;;;;;5092145;28;20411;-87
2022/01/11 13:43:07;;;;;;;5.18;3.45;;;;;;;;;;5093076;28;20393;-88
2022/01/11 13:45:37;;;;;;;4.53;3.17;;;;;;;;;;5090215;28;20948;-88
2022/01/11 13:48:22;;;;;;;5.35;3.40;;;;;;;;;;5090294;28;20400;-88
2022/01/11 13:50:54;;;;;;;4.67;3.50;;;;;;;;;;5091049;28;20419;-88
2022/01/11 13:53:29;;;;;;;3.88;3.00;;;;;;;;;;5092355;28;20424;-87
2022/01/11 13:56:08;;;;;;;5.55;3.60;;;;;;;;;;5096053;28;20405;-88
2022/01/11 13:58:38;;;;;;;4.53;3.70;;;;;;;;;;5094743;28;20404;-89
2022/01/11 14:01:07;;;;;;;4.85;4.13;;;;;;;;;;5100971;28;20957;-88
2022/01/11 14:03:34;;;;;;;4.57;4.10;;;;;;;;;;5104427;28;20399;-89
2022/01/11 14:06:12;;;;;;;6.65;4.63;;;;;;;;;;5102981;28;20810;-86
2022/01/11 14:08:45;;;;;;;5.72;4.38;;;;;;;;;;5097173;28;20757;-88
2022/01/11 14:11:24;;;;;;;6.50;4.40;;;;;;;;;;5098538;28;20405;-88
2022/01/11 14:13:51;;;;;;;5.68;4.28;;;;;;;;;;5098513;28;21105;-88
2022/01/11 14:16:20;;;;;;;5.97;4.40;;;;;;;;;;5100352;28;20797;-87
2022/01/11 14:19:02;;;;;;;5.30;4.33;;;;;;;;;;5096472;28;20820;-87
2022/01/11 14:21:29;;;;;;;6.43;5.10;;;;;;;;;;5098413;28;20477;-87
2022/01/11 14:23:56;;;;;;;6.43;5.28;;;;;;;;;;5093537;28;21153;-87
2022/01/11 14:26:33;;;;;;;6.57;5.68;;;;;;;;;;5099052;28;20411;-86
2022/01/11 14:29:01;;;;;;;6.22;5.28;;;;;;;;;;5096280;28;20922;-88
2022/01/11 14:31:32;;;;;;;7.70;5.57;;;;;;;;;;5095100;28;20412;-87
2022/01/11 14:34:08;;;;;;;7.45;5.68;;;;;;;;;;5096864;28;20771;-87
2022/01/11 14:36:35;;;;;;;6.80;5.80;;;;;;;;;;5096737;28;20400;-87
2022/01/11 14:39:08;;;;;;;6.85;5.70;;;;;;;;;;5092644;28;20400;-88